sensor_id;sensor_type;location;lat;lon;timestamp;pressure;altitude;pressure_sealevel;temperature;humidity
60642;BME280;46837;52.446;-1.930;2023-05-16T00:00:09;101096.53;;;9.81;62.91
60642;BME280;46837;52.446;-1.930;2023-05-16T00:01:09;101098.24;;;9.79;62.95
60642;BME280;46837;52.446;-1.930;2023-05-16T00:02:09;101099.48;;;9.78;62.99
60642;BME280;46837;52.446;-1.930;2023-05-16T00:03:09;101104.58;;;9.80;62.99
60642;BME280;46837;52.446;-1.930;2023-05-16T00:04:09;101100.91;;;9.77;63.05
60642;BME280;46837;52.446;-1.930;2023-05-16T00:05:09;101100.59;;;9.74;63.09
60642;BME280;46837;52.446;-1.930;2023-05-16T00:06:09;101096.33;;;9.77;63.03
60642;BME280;46837;52.446;-1.930;2023-05-16T00:07:09;101096.75;;;9.73;63.16
60642;BME280;46837;52.446;-1.930;2023-05-16T00:08:09;101101.31;;;9.74;63.14
60642;BME280;46837;52.446;-1.930;2023-05-16T00:09:09;101099.04;;;9.76;63.10
60642;BME280;46837;52.446;-1.930;2023-05-16T00:10:09;101102.10;;;9.75;63.08
60642;BME280;46837;52.446;-1.930;2023-05-16T00:11:09;101103.56;;;9.73;63.12
60642;BME280;46837;52.446;-1.930;2023-05-16T00:12:09;101100.54;;;9.71;63.16
60642;BME280;46837;52.446;-1.930;2023-05-16T00:13:09;101101.34;;;9.73;63.15
60642;BME280;46837;52.446;-1.930;2023-05-16T00:14:09;101100.32;;;9.72;63.13
60642;BME280;46837;52.446;-1.930;2023-05-16T00:15:09;101098.18;;;9.74;63.08
60642;BME280;46837;52.446;-1.930;2023-05-16T00:16:09;101100.70;;;9.74;63.05
60642;BME280;46837;52.446;-1.930;2023-05-16T00:17:13;101097.68;;;9.75;62.99
60642;BME280;46837;52.446;-1.930;2023-05-16T00:18:09;101096.86;;;9.78;62.96
60642;BME280;46837;52.446;-1.930;2023-05-16T00:19:09;101094.20;;;9.78;62.96
60642;BME280;46837;52.446;-1.930;2023-05-16T00:20:09;101094.97;;;9.77;63.00
60642;BME280;46837;52.446;-1.930;2023-05-16T00:21:09;101097.40;;;9.75;63.04
60642;BME280;46837;52.446;-1.930;2023-05-16T00:22:09;101096.49;;;9.74;63.04
60642;BME280;46837;52.446;-1.930;2023-05-16T00:23:09;101098.18;;;9.69;63.14
60642;BME280;46837;52.446;-1.930;2023-05-16T00:24:09;101099.38;;;9.66;63.25
60642;BME280;46837;52.446;-1.930;2023-05-16T00:25:09;101098.66;;;9.68;63.13
60642;BME280;46837;52.446;-1.930;2023-05-16T00:26:09;101098.39;;;9.69;63.06
60642;BME280;46837;52.446;-1.930;2023-05-16T00:27:09;101099.60;;;9.68;63.06
60642;BME280;46837;52.446;-1.930;2023-05-16T00:28:09;101092.36;;;9.67;63.15
60642;BME280;46837;52.446;-1.930;2023-05-16T00:29:09;101094.18;;;9.66;63.07
60642;BME280;46837;52.446;-1.930;2023-05-16T00:30:09;101096.28;;;9.67;63.02
60642;BME280;46837;52.446;-1.930;2023-05-16T00:31:09;101097.36;;;9.68;62.95
60642;BME280;46837;52.446;-1.930;2023-05-16T00:32:10;101092.33;;;9.68;62.96
60642;BME280;46837;52.446;-1.930;2023-05-16T00:33:09;101096.78;;;9.70;62.96
60642;BME280;46837;52.446;-1.930;2023-05-16T00:34:09;101097.54;;;9.72;62.85
60642;BME280;46837;52.446;-1.930;2023-05-16T00:35:09;101095.26;;;9.73;62.78
60642;BME280;46837;52.446;-1.930;2023-05-16T00:36:09;101095.73;;;9.69;62.82
60642;BME280;46837;52.446;-1.930;2023-05-16T00:37:09;101095.23;;;9.69;62.80
60642;BME280;46837;52.446;-1.930;2023-05-16T00:38:09;101094.48;;;9.72;62.76
60642;BME280;46837;52.446;-1.930;2023-05-16T00:39:09;101098.53;;;9.70;62.67
60642;BME280;46837;52.446;-1.930;2023-05-16T00:40:09;101096.68;;;9.67;62.76
60642;BME280;46837;52.446;-1.930;2023-05-16T00:41:09;101095.58;;;9.67;62.70
60642;BME280;46837;52.446;-1.930;2023-05-16T00:42:09;101096.87;;;9.66;62.73
60642;BME280;46837;52.446;-1.930;2023-05-16T00:43:09;101097.76;;;9.67;62.75
60642;BME280;46837;52.446;-1.930;2023-05-16T00:44:09;101096.14;;;9.66;62.70
60642;BME280;46837;52.446;-1.930;2023-05-16T00:45:09;101099.28;;;9.66;62.71
60642;BME280;46837;52.446;-1.930;2023-05-16T00:46:09;101096.80;;;9.66;62.71
60642;BME280;46837;52.446;-1.930;2023-05-16T00:47:09;101092.91;;;9.67;62.63
60642;BME280;46837;52.446;-1.930;2023-05-16T00:48:10;101091.98;;;9.62;62.74
60642;BME280;46837;52.446;-1.930;2023-05-16T00:49:09;101093.57;;;9.62;62.76
60642;BME280;46837;52.446;-1.930;2023-05-16T00:50:09;101091.93;;;9.60;62.75
60642;BME280;46837;52.446;-1.930;2023-05-16T00:51:11;101091.25;;;9.58;62.77
60642;BME280;46837;52.446;-1.930;2023-05-16T00:52:09;101091.02;;;9.56;62.84
60642;BME280;46837;52.446;-1.930;2023-05-16T00:53:09;101090.37;;;9.56;62.76
60642;BME280;46837;52.446;-1.930;2023-05-16T00:54:09;101086.60;;;9.53;62.76
60642;BME280;46837;52.446;-1.930;2023-05-16T00:55:09;101086.35;;;9.52;62.81
60642;BME280;46837;52.446;-1.930;2023-05-16T00:56:09;101081.27;;;9.46;62.87
60642;BME280;46837;52.446;-1.930;2023-05-16T00:57:09;101081.94;;;9.47;62.90
60642;BME280;46837;52.446;-1.930;2023-05-16T00:58:09;101079.89;;;9.48;62.83
60642;BME280;46837;52.446;-1.930;2023-05-16T00:59:09;101077.88;;;9.46;62.85
60642;BME280;46837;52.446;-1.930;2023-05-16T01:00:09;101076.03;;;9.46;62.88
60642;BME280;46837;52.446;-1.930;2023-05-16T01:01:09;101076.18;;;9.48;62.82
60642;BME280;46837;52.446;-1.930;2023-05-16T01:02:09;101077.00;;;9.48;62.75
60642;BME280;46837;52.446;-1.930;2023-05-16T01:03:09;101075.02;;;9.50;62.65
60642;BME280;46837;52.446;-1.930;2023-05-16T01:04:09;101075.21;;;9.49;62.70
60642;BME280;46837;52.446;-1.930;2023-05-16T01:05:09;101073.18;;;9.48;62.81
60642;BME280;46837;52.446;-1.930;2023-05-16T01:06:09;101073.93;;;9.48;62.74
60642;BME280;46837;52.446;-1.930;2023-05-16T01:07:09;101070.65;;;9.45;62.76
60642;BME280;46837;52.446;-1.930;2023-05-16T01:08:09;101069.22;;;9.47;62.68
60642;BME280;46837;52.446;-1.930;2023-05-16T01:09:09;101068.10;;;9.47;62.76
60642;BME280;46837;52.446;-1.930;2023-05-16T01:10:09;101070.63;;;9.41;62.80
60642;BME280;46837;52.446;-1.930;2023-05-16T01:11:12;101071.63;;;9.42;62.81
60642;BME280;46837;52.446;-1.930;2023-05-16T01:15:12;101072.99;;;9.35;63.05
60642;BME280;46837;52.446;-1.930;2023-05-16T01:16:17;101078.85;;;9.33;63.08
60642;BME280;46837;52.446;-1.930;2023-05-16T01:18:15;101075.15;;;9.29;63.17
60642;BME280;46837;52.446;-1.930;2023-05-16T01:20:18;101074.41;;;9.32;63.11
60642;BME280;46837;52.446;-1.930;2023-05-16T01:21:15;101074.08;;;9.27;63.20
60642;BME280;46837;52.446;-1.930;2023-05-16T01:23:18;101075.59;;;9.26;63.26
60642;BME280;46837;52.446;-1.930;2023-05-16T01:24:13;101076.79;;;9.29;63.15
60642;BME280;46837;52.446;-1.930;2023-05-16T01:27:09;101076.30;;;9.27;63.15
60642;BME280;46837;52.446;-1.930;2023-05-16T01:28:09;101078.00;;;9.26;63.17
60642;BME280;46837;52.446;-1.930;2023-05-16T01:29:09;101072.92;;;9.17;63.34
60642;BME280;46837;52.446;-1.930;2023-05-16T01:30:13;101080.35;;;9.13;63.53
60642;BME280;46837;52.446;-1.930;2023-05-16T01:31:09;101080.00;;;9.14;63.45
60642;BME280;46837;52.446;-1.930;2023-05-16T01:32:09;101079.12;;;9.12;63.45
60642;BME280;46837;52.446;-1.930;2023-05-16T01:33:09;101078.78;;;9.11;63.46
60642;BME280;46837;52.446;-1.930;2023-05-16T01:34:09;101080.16;;;9.10;63.52
60642;BME280;46837;52.446;-1.930;2023-05-16T01:35:10;101077.72;;;9.12;63.42
60642;BME280;46837;52.446;-1.930;2023-05-16T01:36:19;101078.75;;;9.10;63.41
60642;BME280;46837;52.446;-1.930;2023-05-16T01:38:19;101080.07;;;9.05;63.45
60642;BME280;46837;52.446;-1.930;2023-05-16T01:39:14;101077.35;;;9.06;63.44
60642;BME280;46837;52.446;-1.930;2023-05-16T01:40:16;101079.20;;;9.04;63.52
60642;BME280;46837;52.446;-1.930;2023-05-16T01:42:11;101078.50;;;9.01;63.56
60642;BME280;46837;52.446;-1.930;2023-05-16T01:43:10;101074.65;;;9.03;63.45
60642;BME280;46837;52.446;-1.930;2023-05-16T01:45:22;101072.92;;;9.03;63.39
60642;BME280;46837;52.446;-1.930;2023-05-16T01:46:14;101074.59;;;9.02;63.43
60642;BME280;46837;52.446;-1.930;2023-05-16T01:47:10;101069.32;;;9.00;63.51
60642;BME280;46837;52.446;-1.930;2023-05-16T01:49:19;101071.14;;;9.02;63.41
60642;BME280;46837;52.446;-1.930;2023-05-16T01:50:13;101072.29;;;9.02;63.49
60642;BME280;46837;52.446;-1.930;2023-05-16T01:51:09;101074.29;;;8.99;63.52
60642;BME280;46837;52.446;-1.930;2023-05-16T01:52:12;101077.54;;;9.00;63.54
60642;BME280;46837;52.446;-1.930;2023-05-16T01:53:11;101074.77;;;8.98;63.64
60642;BME280;46837;52.446;-1.930;2023-05-16T01:54:10;101075.96;;;8.98;63.66
60642;BME280;46837;52.446;-1.930;2023-05-16T01:55:14;101073.21;;;8.95;63.68
60642;BME280;46837;52.446;-1.930;2023-05-16T01:56:10;101074.58;;;8.94;63.69
60642;BME280;46837;52.446;-1.930;2023-05-16T01:57:10;101079.40;;;8.96;63.70
60642;BME280;46837;52.446;-1.930;2023-05-16T01:58:09;101078.38;;;8.96;63.72
60642;BME280;46837;52.446;-1.930;2023-05-16T01:59:09;101077.09;;;8.95;63.73
60642;BME280;46837;52.446;-1.930;2023-05-16T02:00:09;101077.58;;;8.95;63.71
60642;BME280;46837;52.446;-1.930;2023-05-16T02:01:09;101075.05;;;8.96;63.68
60642;BME280;46837;52.446;-1.930;2023-05-16T02:02:09;101079.90;;;8.99;63.59
60642;BME280;46837;52.446;-1.930;2023-05-16T02:03:09;101077.75;;;9.00;63.64
60642;BME280;46837;52.446;-1.930;2023-05-16T02:04:09;101080.29;;;8.98;63.67
60642;BME280;46837;52.446;-1.930;2023-05-16T02:05:09;101075.43;;;8.96;63.72
60642;BME280;46837;52.446;-1.930;2023-05-16T02:06:09;101075.92;;;8.96;63.73
60642;BME280;46837;52.446;-1.930;2023-05-16T02:07:09;101073.23;;;8.96;63.76
60642;BME280;46837;52.446;-1.930;2023-05-16T02:08:09;101075.66;;;8.97;63.68
60642;BME280;46837;52.446;-1.930;2023-05-16T02:09:09;101072.48;;;8.98;63.62
60642;BME280;46837;52.446;-1.930;2023-05-16T02:10:09;101071.90;;;8.97;63.63
60642;BME280;46837;52.446;-1.930;2023-05-16T02:11:09;101071.90;;;8.95;63.65
60642;BME280;46837;52.446;-1.930;2023-05-16T02:12:09;101071.66;;;8.92;63.77
60642;BME280;46837;52.446;-1.930;2023-05-16T02:13:09;101075.34;;;8.95;63.70
60642;BME280;46837;52.446;-1.930;2023-05-16T02:14:09;101070.57;;;8.91;63.77
60642;BME280;46837;52.446;-1.930;2023-05-16T02:15:09;101071.39;;;8.91;63.79
60642;BME280;46837;52.446;-1.930;2023-05-16T02:16:10;101070.30;;;8.91;63.82
60642;BME280;46837;52.446;-1.930;2023-05-16T02:17:09;101067.64;;;8.92;63.80
60642;BME280;46837;52.446;-1.930;2023-05-16T02:18:09;101068.90;;;8.94;63.79
60642;BME280;46837;52.446;-1.930;2023-05-16T02:19:09;101068.93;;;8.96;63.72
60642;BME280;46837;52.446;-1.930;2023-05-16T02:20:09;101073.93;;;8.97;63.74
60642;BME280;46837;52.446;-1.930;2023-05-16T02:21:09;101068.02;;;8.92;63.92
60642;BME280;46837;52.446;-1.930;2023-05-16T02:22:09;101068.71;;;8.93;63.83
60642;BME280;46837;52.446;-1.930;2023-05-16T02:23:09;101075.20;;;8.89;63.99
60642;BME280;46837;52.446;-1.930;2023-05-16T02:24:09;101074.20;;;8.88;64.05
60642;BME280;46837;52.446;-1.930;2023-05-16T02:25:09;101070.02;;;8.89;64.10
60642;BME280;46837;52.446;-1.930;2023-05-16T02:26:09;101072.70;;;8.85;64.20
60642;BME280;46837;52.446;-1.930;2023-05-16T02:27:09;101075.14;;;8.85;64.21
60642;BME280;46837;52.446;-1.930;2023-05-16T02:28:09;101074.40;;;8.87;64.17
60642;BME280;46837;52.446;-1.930;2023-05-16T02:29:09;101078.70;;;8.87;64.14
60642;BME280;46837;52.446;-1.930;2023-05-16T02:30:09;101078.62;;;8.82;64.42
60642;BME280;46837;52.446;-1.930;2023-05-16T02:31:09;101077.13;;;8.81;64.43
60642;BME280;46837;52.446;-1.930;2023-05-16T02:32:09;101078.12;;;8.83;64.45
60642;BME280;46837;52.446;-1.930;2023-05-16T02:33:09;101079.59;;;8.81;64.50
60642;BME280;46837;52.446;-1.930;2023-05-16T02:34:09;101076.97;;;8.79;64.56
60642;BME280;46837;52.446;-1.930;2023-05-16T02:35:09;101077.46;;;8.81;64.57
60642;BME280;46837;52.446;-1.930;2023-05-16T02:36:09;101081.54;;;8.83;64.47
60642;BME280;46837;52.446;-1.930;2023-05-16T02:37:09;101079.09;;;8.81;64.51
60642;BME280;46837;52.446;-1.930;2023-05-16T02:38:09;101079.80;;;8.80;64.61
60642;BME280;46837;52.446;-1.930;2023-05-16T02:39:09;101082.94;;;8.77;64.79
60642;BME280;46837;52.446;-1.930;2023-05-16T02:40:09;101080.35;;;8.76;64.80
60642;BME280;46837;52.446;-1.930;2023-05-16T02:41:09;101080.86;;;8.75;64.81
60642;BME280;46837;52.446;-1.930;2023-05-16T02:42:09;101079.64;;;8.75;64.83
60642;BME280;46837;52.446;-1.930;2023-05-16T02:43:09;101081.96;;;8.77;64.77
60642;BME280;46837;52.446;-1.930;2023-05-16T02:44:09;101082.61;;;8.76;64.81
60642;BME280;46837;52.446;-1.930;2023-05-16T02:45:09;101076.71;;;8.73;64.93
60642;BME280;46837;52.446;-1.930;2023-05-16T02:47:09;101080.49;;;8.77;64.82
60642;BME280;46837;52.446;-1.930;2023-05-16T02:48:09;101074.32;;;8.77;64.86
60642;BME280;46837;52.446;-1.930;2023-05-16T02:49:09;101077.22;;;8.76;64.94
60642;BME280;46837;52.446;-1.930;2023-05-16T02:50:09;101075.73;;;8.78;64.93
60642;BME280;46837;52.446;-1.930;2023-05-16T02:51:09;101075.11;;;8.75;65.01
60642;BME280;46837;52.446;-1.930;2023-05-16T02:52:09;101074.71;;;8.71;65.12
60642;BME280;46837;52.446;-1.930;2023-05-16T02:53:09;101075.88;;;8.72;65.15
60642;BME280;46837;52.446;-1.930;2023-05-16T02:54:11;101078.77;;;8.72;65.18
60642;BME280;46837;52.446;-1.930;2023-05-16T02:55:09;101072.72;;;8.72;65.14
60642;BME280;46837;52.446;-1.930;2023-05-16T02:56:09;101076.73;;;8.69;65.35
60642;BME280;46837;52.446;-1.930;2023-05-16T02:57:09;101074.40;;;8.72;65.28
60642;BME280;46837;52.446;-1.930;2023-05-16T02:58:09;101074.96;;;8.72;65.25
60642;BME280;46837;52.446;-1.930;2023-05-16T02:59:09;101072.73;;;8.70;65.30
60642;BME280;46837;52.446;-1.930;2023-05-16T03:00:09;101075.07;;;8.70;65.34
60642;BME280;46837;52.446;-1.930;2023-05-16T03:01:09;101075.16;;;8.68;65.40
60642;BME280;46837;52.446;-1.930;2023-05-16T03:02:09;101072.87;;;8.69;65.35
60642;BME280;46837;52.446;-1.930;2023-05-16T03:03:09;101072.86;;;8.67;65.48
60642;BME280;46837;52.446;-1.930;2023-05-16T03:04:09;101073.30;;;8.65;65.52
60642;BME280;46837;52.446;-1.930;2023-05-16T03:05:09;101070.81;;;8.65;65.59
60642;BME280;46837;52.446;-1.930;2023-05-16T03:06:09;101074.94;;;8.65;65.66
60642;BME280;46837;52.446;-1.930;2023-05-16T03:07:09;101068.77;;;8.65;65.66
60642;BME280;46837;52.446;-1.930;2023-05-16T03:08:09;101073.64;;;8.63;65.78
60642;BME280;46837;52.446;-1.930;2023-05-16T03:09:09;101068.95;;;8.61;65.89
60642;BME280;46837;52.446;-1.930;2023-05-16T03:10:09;101074.82;;;8.58;66.06
60642;BME280;46837;52.446;-1.930;2023-05-16T03:11:09;101075.86;;;8.61;65.99
60642;BME280;46837;52.446;-1.930;2023-05-16T03:12:09;101073.36;;;8.61;66.00
60642;BME280;46837;52.446;-1.930;2023-05-16T03:13:09;101079.42;;;8.59;66.11
60642;BME280;46837;52.446;-1.930;2023-05-16T03:14:09;101072.51;;;8.59;66.13
60642;BME280;46837;52.446;-1.930;2023-05-16T03:15:09;101075.25;;;8.60;66.13
60642;BME280;46837;52.446;-1.930;2023-05-16T03:16:09;101077.29;;;8.61;66.13
60642;BME280;46837;52.446;-1.930;2023-05-16T03:17:09;101073.32;;;8.63;66.08
60642;BME280;46837;52.446;-1.930;2023-05-16T03:18:09;101073.05;;;8.66;66.05
60642;BME280;46837;52.446;-1.930;2023-05-16T03:19:09;101074.67;;;8.63;66.13
60642;BME280;46837;52.446;-1.930;2023-05-16T03:20:11;101072.54;;;8.63;66.17
60642;BME280;46837;52.446;-1.930;2023-05-16T03:21:09;101071.79;;;8.64;66.17
60642;BME280;46837;52.446;-1.930;2023-05-16T03:22:09;101076.35;;;8.63;66.18
60642;BME280;46837;52.446;-1.930;2023-05-16T03:23:10;101070.18;;;8.59;66.36
60642;BME280;46837;52.446;-1.930;2023-05-16T03:24:09;101073.64;;;8.61;66.26
60642;BME280;46837;52.446;-1.930;2023-05-16T03:25:09;101073.93;;;8.59;66.37
60642;BME280;46837;52.446;-1.930;2023-05-16T03:26:09;101075.16;;;8.61;66.31
60642;BME280;46837;52.446;-1.930;2023-05-16T03:27:09;101074.86;;;8.62;66.29
60642;BME280;46837;52.446;-1.930;2023-05-16T03:28:09;101074.06;;;8.61;66.32
60642;BME280;46837;52.446;-1.930;2023-05-16T03:29:09;101069.79;;;8.62;66.29
60642;BME280;46837;52.446;-1.930;2023-05-16T03:30:09;101070.30;;;8.61;66.31
60642;BME280;46837;52.446;-1.930;2023-05-16T03:31:09;101071.32;;;8.58;66.46
60642;BME280;46837;52.446;-1.930;2023-05-16T03:32:09;101070.69;;;8.58;66.47
60642;BME280;46837;52.446;-1.930;2023-05-16T03:33:09;101066.95;;;8.57;66.50
60642;BME280;46837;52.446;-1.930;2023-05-16T03:34:09;101066.58;;;8.58;66.54
60642;BME280;46837;52.446;-1.930;2023-05-16T03:35:09;101065.73;;;8.57;66.53
60642;BME280;46837;52.446;-1.930;2023-05-16T03:36:09;101064.52;;;8.58;66.54
60642;BME280;46837;52.446;-1.930;2023-05-16T03:37:09;101063.68;;;8.57;66.52
60642;BME280;46837;52.446;-1.930;2023-05-16T03:38:09;101063.46;;;8.55;66.60
60642;BME280;46837;52.446;-1.930;2023-05-16T03:39:09;101062.70;;;8.53;66.69
60642;BME280;46837;52.446;-1.930;2023-05-16T03:40:09;101063.55;;;8.56;66.64
60642;BME280;46837;52.446;-1.930;2023-05-16T03:41:09;101056.57;;;8.56;66.64
60642;BME280;46837;52.446;-1.930;2023-05-16T03:42:09;101063.57;;;8.55;66.71
60642;BME280;46837;52.446;-1.930;2023-05-16T03:43:09;101065.37;;;8.53;66.73
60642;BME280;46837;52.446;-1.930;2023-05-16T03:44:09;101064.45;;;8.53;66.76
60642;BME280;46837;52.446;-1.930;2023-05-16T03:45:09;101069.97;;;8.54;66.75
60642;BME280;46837;52.446;-1.930;2023-05-16T03:46:09;101069.53;;;8.56;66.66
60642;BME280;46837;52.446;-1.930;2023-05-16T03:47:09;101072.23;;;8.53;66.80
60642;BME280;46837;52.446;-1.930;2023-05-16T03:48:09;101070.72;;;8.54;66.76
60642;BME280;46837;52.446;-1.930;2023-05-16T03:49:09;101071.65;;;8.47;67.03
60642;BME280;46837;52.446;-1.930;2023-05-16T03:50:09;101072.51;;;8.49;67.05
60642;BME280;46837;52.446;-1.930;2023-05-16T03:51:09;101077.55;;;8.46;67.14
60642;BME280;46837;52.446;-1.930;2023-05-16T03:52:09;101076.61;;;8.43;67.25
60642;BME280;46837;52.446;-1.930;2023-05-16T03:53:09;101076.37;;;8.43;67.36
60642;BME280;46837;52.446;-1.930;2023-05-16T03:54:09;101076.06;;;8.39;67.55
60642;BME280;46837;52.446;-1.930;2023-05-16T03:55:09;101072.33;;;8.38;67.60
60642;BME280;46837;52.446;-1.930;2023-05-16T03:56:09;101072.77;;;8.38;67.58
60642;BME280;46837;52.446;-1.930;2023-05-16T03:57:09;101069.73;;;8.40;67.54
60642;BME280;46837;52.446;-1.930;2023-05-16T03:58:09;101069.70;;;8.36;67.62
60642;BME280;46837;52.446;-1.930;2023-05-16T03:59:09;101070.54;;;8.37;67.73
60642;BME280;46837;52.446;-1.930;2023-05-16T04:00:10;101071.14;;;8.43;67.50
60642;BME280;46837;52.446;-1.930;2023-05-16T04:01:09;101070.58;;;8.44;67.43
60642;BME280;46837;52.446;-1.930;2023-05-16T04:02:09;101073.09;;;8.42;67.46
60642;BME280;46837;52.446;-1.930;2023-05-16T04:03:09;101073.77;;;8.41;67.62
60642;BME280;46837;52.446;-1.930;2023-05-16T04:04:09;101074.71;;;8.44;67.51
60642;BME280;46837;52.446;-1.930;2023-05-16T04:05:09;101076.21;;;8.43;67.42
60642;BME280;46837;52.446;-1.930;2023-05-16T04:06:09;101079.68;;;8.34;67.80
60642;BME280;46837;52.446;-1.930;2023-05-16T04:07:09;101080.27;;;8.37;67.74
60642;BME280;46837;52.446;-1.930;2023-05-16T04:08:09;101081.38;;;8.35;67.83
60642;BME280;46837;52.446;-1.930;2023-05-16T04:09:09;101082.16;;;8.36;67.81
60642;BME280;46837;52.446;-1.930;2023-05-16T04:10:09;101078.64;;;8.37;67.74
60642;BME280;46837;52.446;-1.930;2023-05-16T04:11:09;101080.02;;;8.35;67.69
60642;BME280;46837;52.446;-1.930;2023-05-16T04:12:09;101080.35;;;8.33;67.80
60642;BME280;46837;52.446;-1.930;2023-05-16T04:13:09;101078.65;;;8.35;67.65
60642;BME280;46837;52.446;-1.930;2023-05-16T04:14:09;101080.76;;;8.28;67.79
60642;BME280;46837;52.446;-1.930;2023-05-16T04:15:09;101079.52;;;8.27;67.80
60642;BME280;46837;52.446;-1.930;2023-05-16T04:16:09;101083.43;;;8.29;67.74
60642;BME280;46837;52.446;-1.930;2023-05-16T04:17:09;101083.30;;;8.26;67.72
60642;BME280;46837;52.446;-1.930;2023-05-16T04:18:09;101081.70;;;8.23;67.69
60642;BME280;46837;52.446;-1.930;2023-05-16T04:19:09;101083.87;;;8.22;67.72
60642;BME280;46837;52.446;-1.930;2023-05-16T04:20:09;101081.67;;;8.24;67.65
60642;BME280;46837;52.446;-1.930;2023-05-16T04:21:09;101089.05;;;8.21;67.67
60642;BME280;46837;52.446;-1.930;2023-05-16T04:22:09;101083.72;;;8.21;67.76
60642;BME280;46837;52.446;-1.930;2023-05-16T04:23:09;101088.65;;;8.18;67.84
60642;BME280;46837;52.446;-1.930;2023-05-16T04:24:09;101085.69;;;8.19;67.90
60642;BME280;46837;52.446;-1.930;2023-05-16T04:25:09;101086.61;;;8.22;67.87
60642;BME280;46837;52.446;-1.930;2023-05-16T04:26:09;101093.30;;;8.19;67.98
60642;BME280;46837;52.446;-1.930;2023-05-16T04:27:10;101089.00;;;8.19;67.93
60642;BME280;46837;52.446;-1.930;2023-05-16T04:28:09;101090.26;;;8.19;67.92
60642;BME280;46837;52.446;-1.930;2023-05-16T04:29:09;101091.90;;;8.16;68.06
60642;BME280;46837;52.446;-1.930;2023-05-16T04:30:09;101091.04;;;8.16;68.14
60642;BME280;46837;52.446;-1.930;2023-05-16T04:31:09;101093.62;;;8.19;68.11
60642;BME280;46837;52.446;-1.930;2023-05-16T04:32:09;101089.10;;;8.17;68.09
60642;BME280;46837;52.446;-1.930;2023-05-16T04:33:09;101090.01;;;8.16;68.12
60642;BME280;46837;52.446;-1.930;2023-05-16T04:34:09;101089.20;;;8.16;68.18
60642;BME280;46837;52.446;-1.930;2023-05-16T04:35:09;101091.73;;;8.19;68.11
60642;BME280;46837;52.446;-1.930;2023-05-16T04:36:09;101093.37;;;8.17;68.21
60642;BME280;46837;52.446;-1.930;2023-05-16T04:37:09;101090.59;;;8.19;68.18
60642;BME280;46837;52.446;-1.930;2023-05-16T04:38:09;101091.90;;;8.21;68.12
60642;BME280;46837;52.446;-1.930;2023-05-16T04:39:09;101089.23;;;8.22;68.09
60642;BME280;46837;52.446;-1.930;2023-05-16T04:40:09;101091.63;;;8.22;68.10
60642;BME280;46837;52.446;-1.930;2023-05-16T04:41:09;101090.91;;;8.21;68.12
60642;BME280;46837;52.446;-1.930;2023-05-16T04:42:09;101093.74;;;8.21;68.12
60642;BME280;46837;52.446;-1.930;2023-05-16T04:43:09;101095.00;;;8.23;68.06
60642;BME280;46837;52.446;-1.930;2023-05-16T04:44:09;101097.73;;;8.23;67.99
60642;BME280;46837;52.446;-1.930;2023-05-16T04:45:09;101101.28;;;8.24;67.94
60642;BME280;46837;52.446;-1.930;2023-05-16T04:46:09;101097.80;;;8.24;68.04
60642;BME280;46837;52.446;-1.930;2023-05-16T04:47:09;101099.43;;;8.26;68.02
60642;BME280;46837;52.446;-1.930;2023-05-16T04:48:09;101100.03;;;8.26;67.98
60642;BME280;46837;52.446;-1.930;2023-05-16T04:49:09;101095.12;;;8.28;67.92
60642;BME280;46837;52.446;-1.930;2023-05-16T04:50:09;101095.29;;;8.30;67.93
60642;BME280;46837;52.446;-1.930;2023-05-16T04:51:09;101093.22;;;8.28;68.01
60642;BME280;46837;52.446;-1.930;2023-05-16T04:52:09;101093.71;;;8.28;68.10
60642;BME280;46837;52.446;-1.930;2023-05-16T04:53:09;101091.91;;;8.30;68.02
60642;BME280;46837;52.446;-1.930;2023-05-16T04:54:09;101095.71;;;8.31;68.05
60642;BME280;46837;52.446;-1.930;2023-05-16T04:55:09;101093.75;;;8.31;68.18
60642;BME280;46837;52.446;-1.930;2023-05-16T04:56:09;101096.52;;;8.33;68.28
60642;BME280;46837;52.446;-1.930;2023-05-16T04:57:09;101094.45;;;8.35;68.24
60642;BME280;46837;52.446;-1.930;2023-05-16T04:58:09;101095.22;;;8.33;68.33
60642;BME280;46837;52.446;-1.930;2023-05-16T04:59:09;101092.12;;;8.35;68.31
60642;BME280;46837;52.446;-1.930;2023-05-16T05:00:10;101096.79;;;8.38;68.26
60642;BME280;46837;52.446;-1.930;2023-05-16T05:01:09;101094.29;;;8.38;68.23
60642;BME280;46837;52.446;-1.930;2023-05-16T05:02:09;101096.21;;;8.38;68.29
60642;BME280;46837;52.446;-1.930;2023-05-16T05:03:09;101098.70;;;8.38;68.39
60642;BME280;46837;52.446;-1.930;2023-05-16T05:04:09;101093.77;;;8.39;68.45
60642;BME280;46837;52.446;-1.930;2023-05-16T05:05:09;101097.88;;;8.42;68.34
60642;BME280;46837;52.446;-1.930;2023-05-16T05:06:09;101100.14;;;8.45;68.31
60642;BME280;46837;52.446;-1.930;2023-05-16T05:07:09;101099.02;;;8.46;68.19
60642;BME280;46837;52.446;-1.930;2023-05-16T05:08:09;101100.92;;;8.48;68.15
60642;BME280;46837;52.446;-1.930;2023-05-16T05:09:09;101099.78;;;8.46;68.13
60642;BME280;46837;52.446;-1.930;2023-05-16T05:10:09;101098.68;;;8.48;68.20
60642;BME280;46837;52.446;-1.930;2023-05-16T05:11:09;101101.21;;;8.44;68.34
60642;BME280;46837;52.446;-1.930;2023-05-16T05:12:09;101102.51;;;8.48;68.27
60642;BME280;46837;52.446;-1.930;2023-05-16T05:13:09;101103.63;;;8.49;68.28
60642;BME280;46837;52.446;-1.930;2023-05-16T05:14:09;101100.41;;;8.53;68.21
60642;BME280;46837;52.446;-1.930;2023-05-16T05:15:09;101104.27;;;8.55;68.19
60642;BME280;46837;52.446;-1.930;2023-05-16T05:16:09;101105.05;;;8.56;68.25
60642;BME280;46837;52.446;-1.930;2023-05-16T05:17:09;101100.41;;;8.58;68.22
60642;BME280;46837;52.446;-1.930;2023-05-16T05:18:09;101104.05;;;8.59;68.25
60642;BME280;46837;52.446;-1.930;2023-05-16T05:19:09;101099.28;;;8.62;68.15
60642;BME280;46837;52.446;-1.930;2023-05-16T05:20:10;101098.59;;;8.59;68.25
60642;BME280;46837;52.446;-1.930;2023-05-16T05:21:09;101098.62;;;8.64;68.18
60642;BME280;46837;52.446;-1.930;2023-05-16T05:22:09;101097.55;;;8.68;68.14
60642;BME280;46837;52.446;-1.930;2023-05-16T05:23:09;101099.48;;;8.71;68.07
60642;BME280;46837;52.446;-1.930;2023-05-16T05:24:09;101101.56;;;8.73;68.03
60642;BME280;46837;52.446;-1.930;2023-05-16T05:25:09;101100.31;;;8.75;68.01
60642;BME280;46837;52.446;-1.930;2023-05-16T05:26:09;101104.21;;;8.76;68.04